createdAt,value
2018-08-17T00:01:55.234Z,100839.74
2018-08-17T00:04:22.949Z,100835.12
2018-08-17T00:06:50.654Z,100828.77
2018-08-17T00:09:18.498Z,100834.86
2018-08-17T00:11:46.157Z,100831.25
2018-08-17T00:14:13.807Z,100830.80
2018-08-17T00:16:41.652Z,100823.16
2018-08-17T00:19:09.315Z,100824.09
2018-08-17T00:21:37.013Z,100830.19
2018-08-17T00:24:04.755Z,100816.13
2018-08-17T00:26:32.438Z,100788.77
2018-08-17T00:29:00.118Z,100811.62
2018-08-17T00:31:27.788Z,100812.63
2018-08-17T00:33:55.455Z,100809.66
2018-08-17T00:36:23.196Z,100810.88
2018-08-17T00:38:50.842Z,100813.34
2018-08-17T00:41:18.542Z,100806.28
2018-08-17T00:43:46.302Z,100819.10
2018-08-17T00:46:13.986Z,100809.52
2018-08-17T00:48:41.674Z,100806.91
2018-08-17T00:51:09.329Z,100813.80
2018-08-17T00:53:37.281Z,100819.05
2018-08-17T00:56:05.011Z,100825.45
2018-08-17T00:58:32.729Z,100823.47
2018-08-17T01:01:00.459Z,100833.88
2018-08-17T01:03:28.221Z,100825.33
2018-08-17T01:05:55.887Z,100818.28
2018-08-17T01:08:23.594Z,100821.61
2018-08-17T01:10:51.322Z,100819.86
2018-08-17T01:13:18.983Z,100822.81
2018-08-17T01:15:46.679Z,100820.20
2018-08-17T01:18:14.368Z,100810.21
2018-08-17T01:20:42.034Z,100805.63
2018-08-17T01:23:09.678Z,100800.73
2018-08-17T01:25:37.767Z,100800.44
2018-08-17T01:28:06.523Z,100801.62
2018-08-17T01:30:34.272Z,100797.67
2018-08-17T01:33:01.943Z,100784.41
2018-08-17T01:35:29.587Z,100768.67
2018-08-17T01:37:57.244Z,100787.20
2018-08-17T01:40:24.893Z,100792.13
2018-08-17T01:42:52.578Z,100790.67
2018-08-17T01:45:20.243Z,100800.79
2018-08-17T01:47:47.919Z,100801.08
2018-08-17T01:50:15.578Z,100806.95
2018-08-17T01:52:43.368Z,100810.27
2018-08-17T01:55:11.816Z,100812.53
2018-08-17T01:57:39.480Z,100805.05
2018-08-17T02:00:11.265Z,100797.72
2018-08-17T02:02:40.693Z,100800.34
2018-08-17T02:05:08.966Z,100805.46
2018-08-17T02:07:36.656Z,100796.73
2018-08-17T02:10:05.760Z,100799.23
2018-08-17T02:12:33.426Z,100798.88
2018-08-17T02:15:01.096Z,100793.47
2018-08-17T02:17:28.759Z,100803.70
2018-08-17T02:19:56.428Z,100803.06
2018-08-17T02:22:24.094Z,100805.45
2018-08-17T02:24:51.781Z,100794.92
2018-08-17T02:27:19.437Z,100805.74
2018-08-17T02:29:47.092Z,100798.48
2018-08-17T02:32:14.742Z,100798.70
2018-08-17T02:34:42.417Z,100795.61
2018-08-17T02:37:10.087Z,100792.14
2018-08-17T02:39:37.774Z,100791.84
2018-08-17T02:42:05.898Z,100788.29
2018-08-17T02:44:33.547Z,100784.81
2018-08-17T02:47:01.259Z,100790.80
2018-08-17T02:49:28.932Z,100789.11
2018-08-17T02:51:56.606Z,100780.61
2018-08-17T02:54:24.292Z,100766.67
2018-08-17T02:56:51.992Z,100766.55
2018-08-17T02:59:19.655Z,100779.08
2018-08-17T03:01:47.321Z,100786.55
2018-08-17T03:04:15.082Z,100788.43
2018-08-17T03:06:42.761Z,100789.98
2018-08-17T03:09:11.339Z,100801.55
2018-08-17T03:11:39.123Z,100799.52
2018-08-17T03:14:07.222Z,100799.11
2018-08-17T03:16:35.062Z,100799.28
2018-08-17T03:19:02.717Z,100794.64
2018-08-17T03:21:30.377Z,100800.98
2018-08-17T03:23:58.052Z,100799.11
2018-08-17T03:26:25.731Z,100795.38
2018-08-17T03:28:53.394Z,100793.88
2018-08-17T03:31:21.069Z,100781.92
2018-08-17T03:33:48.716Z,100782.48
2018-08-17T03:36:16.387Z,100781.50
2018-08-17T03:38:44.061Z,100780.74
2018-08-17T03:41:11.722Z,100777.73
2018-08-17T03:43:39.393Z,100776.62
2018-08-17T03:46:07.119Z,100774.30
2018-08-17T03:48:34.778Z,100773.23
2018-08-17T03:51:02.488Z,100769.81
2018-08-17T03:53:30.256Z,100771.29
2018-08-17T03:55:57.926Z,100764.60
2018-08-17T03:58:25.903Z,100762.33
2018-08-17T04:00:53.620Z,100761.28
2018-08-17T04:03:21.286Z,100757.97
2018-08-17T04:05:48.995Z,100764.70
2018-08-17T04:08:16.654Z,100757.67
2018-08-17T04:10:44.322Z,100762.73
2018-08-17T04:13:12.040Z,100764.11
2018-08-17T04:15:39.786Z,100769.30
2018-08-17T04:18:08.062Z,100763.22
2018-08-17T04:20:35.736Z,100769.11
2018-08-17T04:23:03.489Z,100763.79
2018-08-17T04:25:31.470Z,100765.41
2018-08-17T04:27:59.211Z,100769.91
2018-08-17T04:30:26.898Z,100757.16
2018-08-17T04:32:54.558Z,100756.58
2018-08-17T04:35:22.262Z,100750.99
2018-08-17T04:37:49.915Z,100750.17
2018-08-17T04:40:17.574Z,100749.62
2018-08-17T04:42:45.224Z,100746.68
2018-08-17T04:45:12.886Z,100750.64
2018-08-17T04:47:40.556Z,100748.11
2018-08-17T04:50:09.048Z,100754.28
2018-08-17T04:52:37.117Z,100757.44
2018-08-17T04:55:04.962Z,100744.82
2018-08-17T04:57:32.833Z,100749.98
2018-08-17T05:00:00.590Z,100751.21
2018-08-17T05:02:28.292Z,100751.89
2018-08-17T05:04:55.936Z,100744.88
2018-08-17T05:07:23.765Z,100754.82
2018-08-17T05:09:51.432Z,100753.82
2018-08-17T05:12:19.085Z,100754.40
2018-08-17T05:14:46.762Z,100752.02
2018-08-17T05:17:14.463Z,100756.59
2018-08-17T05:19:42.129Z,100750.90
2018-08-17T05:22:09.811Z,100747.19
2018-08-17T05:24:37.486Z,100745.98
2018-08-17T05:27:05.323Z,100741.30
2018-08-17T05:29:32.990Z,100737.27
2018-08-17T05:32:00.668Z,100739.31
2018-08-17T05:34:28.334Z,100735.27
2018-08-17T05:36:56.127Z,100739.29
2018-08-17T05:39:23.841Z,100731.92
2018-08-17T05:41:51.590Z,100732.92
2018-08-17T05:44:19.288Z,100725.55
2018-08-17T05:46:47.014Z,100724.87
2018-08-17T05:49:14.678Z,100722.34
2018-08-17T05:51:42.337Z,100718.51
2018-08-17T05:54:10.006Z,100716.16
2018-08-17T05:56:37.726Z,100715.50
2018-08-17T05:59:05.620Z,100710.48
2018-08-17T06:01:33.292Z,100725.57
2018-08-17T06:04:00.953Z,100725.25
2018-08-17T06:06:28.619Z,100721.23
2018-08-17T06:08:56.290Z,100728.45
2018-08-17T06:11:24.149Z,100729.30
2018-08-17T06:13:51.697Z,100732.31
2018-08-17T06:16:19.367Z,100730.65
2018-08-17T06:18:47.025Z,100743.92
2018-08-17T06:21:14.723Z,100745.63
2018-08-17T06:23:42.416Z,100737.42
2018-08-17T06:26:10.096Z,100737.91
2018-08-17T06:28:37.769Z,100750.01
2018-08-17T06:31:05.748Z,100749.35
2018-08-17T06:33:33.436Z,100742.14
2018-08-17T06:36:01.341Z,100746.67
2018-08-17T06:38:29.028Z,100747.19
2018-08-17T06:40:56.740Z,100751.91
2018-08-17T06:43:24.418Z,100746.53
2018-08-17T06:45:52.172Z,100745.52
2018-08-17T06:48:19.859Z,100746.39
2018-08-17T06:50:47.625Z,100745.94
2018-08-17T06:53:15.214Z,100762.52
2018-08-17T06:55:42.921Z,100743.86
2018-08-17T06:58:10.621Z,100745.38
2018-08-17T07:00:38.285Z,100746.39
2018-08-17T07:03:06.173Z,100740.20
2018-08-17T07:05:33.861Z,100736.20
2018-08-17T07:08:01.541Z,100738.70
2018-08-17T07:10:29.311Z,100743.41
2018-08-17T07:12:56.995Z,100731.98
2018-08-17T07:15:24.664Z,100742.25
2018-08-17T07:17:52.374Z,100741.77
2018-08-17T07:20:20.074Z,100748.30
2018-08-17T07:22:47.832Z,100747.29
2018-08-17T07:25:15.530Z,100743.44
2018-08-17T07:27:43.291Z,100745.61
2018-08-17T07:30:11.038Z,100752.85
2018-08-17T07:32:38.741Z,100753.34
2018-08-17T07:35:07.864Z,100761.59
2018-08-17T07:37:43.508Z,100753.00
2018-08-17T07:40:11.216Z,100757.71
2018-08-17T07:42:38.913Z,100755.36
2018-08-17T07:45:06.706Z,100755.36
2018-08-17T07:47:34.373Z,100760.06
2018-08-17T07:50:02.076Z,100762.41
2018-08-17T07:52:29.791Z,100751.84
2018-08-17T07:54:57.448Z,100749.30
2018-08-17T07:57:25.208Z,100751.67
2018-08-17T07:59:52.898Z,100753.84
2018-08-17T08:02:20.582Z,100763.58
2018-08-17T08:04:48.238Z,100756.69
2018-08-17T08:07:15.912Z,100758.70
2018-08-17T08:09:43.564Z,100762.25
2018-08-17T08:12:11.232Z,100765.13
2018-08-17T08:14:38.913Z,100769.81
2018-08-17T08:17:06.681Z,100774.02
2018-08-17T08:19:34.372Z,100765.10
2018-08-17T08:22:02.048Z,100774.87
2018-08-17T08:24:31.873Z,100767.12
2018-08-17T08:26:59.602Z,100764.25
2018-08-17T08:29:27.302Z,100769.80
2018-08-17T08:31:54.996Z,100774.34
2018-08-17T08:34:22.665Z,100773.66
2018-08-17T08:36:50.383Z,100778.53
2018-08-17T08:39:18.082Z,100782.90
2018-08-17T08:41:45.741Z,100776.36
2018-08-17T08:44:13.437Z,100776.34
2018-08-17T08:46:41.140Z,100778.03
2018-08-17T08:49:08.845Z,100777.16
2018-08-17T08:51:36.549Z,100778.36
2018-08-17T08:54:04.377Z,100795.18
2018-08-17T08:56:32.060Z,100778.16
2018-08-17T08:58:59.759Z,100779.52
2018-08-17T09:01:27.414Z,100777.45
2018-08-17T09:03:55.194Z,100786.20
2018-08-17T09:06:23.305Z,100786.84
2018-08-17T09:08:50.969Z,100793.56
2018-08-17T09:11:18.650Z,100792.86
2018-08-17T09:13:46.367Z,100798.94
2018-08-17T09:16:14.047Z,100817.46
2018-08-17T09:18:41.759Z,100816.98
2018-08-17T09:21:09.417Z,100826.40
2018-08-17T09:23:37.273Z,100813.42
2018-08-17T09:26:04.965Z,100822.38
2018-08-17T09:28:32.719Z,100818.81
2018-08-17T09:31:00.493Z,100820.66
2018-08-17T09:33:28.226Z,100826.05
2018-08-17T09:35:55.965Z,100828.26
2018-08-17T09:38:23.674Z,100823.18
2018-08-17T09:40:51.358Z,100825.88
2018-08-17T09:43:19.117Z,100835.98
2018-08-17T09:45:46.838Z,100839.02
2018-08-17T09:48:14.534Z,100842.91
2018-08-17T09:50:42.196Z,100846.63
2018-08-17T09:53:09.881Z,100848.45
2018-08-17T09:55:37.560Z,100835.80
2018-08-17T09:58:05.282Z,100834.11
2018-08-17T10:00:38.484Z,100842.69
2018-08-17T10:03:12.487Z,100832.90
2018-08-17T10:05:42.024Z,100830.52
2018-08-17T10:08:15.178Z,100830.19
2018-08-17T10:10:43.534Z,100846.01
2018-08-17T10:13:11.238Z,100839.41
2018-08-17T10:15:38.932Z,100843.44
2018-08-17T10:18:06.636Z,100844.42
2018-08-17T10:20:34.405Z,100840.22
2018-08-17T10:23:10.637Z,100831.78
2018-08-17T10:25:38.925Z,100830.76
2018-08-17T10:28:06.654Z,100824.30
2018-08-17T10:30:34.372Z,100809.49
2018-08-17T10:33:02.077Z,100812.58
2018-08-17T10:35:33.846Z,100822.36
2018-08-17T10:38:02.856Z,100815.12
2018-08-17T10:40:30.616Z,100808.03
2018-08-17T10:43:00.113Z,100819.67
2018-08-17T10:45:27.988Z,100814.23
2018-08-17T10:47:56.129Z,100810.34
2018-08-17T10:50:25.997Z,100813.20
2018-08-17T10:52:55.915Z,100804.45
2018-08-17T10:55:35.449Z,100806.14
2018-08-17T10:58:03.627Z,100804.62
2018-08-17T11:00:31.336Z,100816.92
2018-08-17T11:02:59.000Z,100798.38
2018-08-17T11:05:26.682Z,100799.75
2018-08-17T11:07:54.359Z,100812.74
2018-08-17T11:10:22.013Z,100802.23
2018-08-17T11:12:49.684Z,100802.51
2018-08-17T11:15:17.369Z,100808.17
2018-08-17T11:17:45.665Z,100815.09
2018-08-17T11:20:14.820Z,100813.28
2018-08-17T11:22:42.515Z,100811.63
2018-08-17T11:25:10.213Z,100810.58
2018-08-17T11:27:38.079Z,100812.30
2018-08-17T11:30:08.185Z,100821.08
2018-08-17T11:32:35.860Z,100816.34
2018-08-17T11:35:03.680Z,100820.19
2018-08-17T11:37:31.379Z,100821.21
2018-08-17T11:40:00.722Z,100822.03
2018-08-17T11:42:41.375Z,100825.72
2018-08-17T11:45:11.057Z,100822.73
2018-08-17T11:47:39.768Z,100820.02
2018-08-17T11:50:11.541Z,100818.31
2018-08-17T11:52:55.174Z,100820.65
2018-08-17T11:55:23.833Z,100819.83
2018-08-17T11:57:51.832Z,100830.13
2018-08-17T12:00:19.577Z,100820.32
2018-08-17T12:02:48.024Z,100815.25
2018-08-17T12:05:15.743Z,100813.73
2018-08-17T12:07:44.335Z,100818.97
2018-08-17T12:10:12.033Z,100830.03
2018-08-17T12:12:40.761Z,100818.38
2018-08-17T12:15:09.529Z,100817.33
2018-08-17T12:17:37.388Z,100818.52
2018-08-17T12:20:05.124Z,100818.34
2018-08-17T12:22:32.841Z,100824.38
2018-08-17T12:25:00.962Z,100818.80
2018-08-17T12:27:28.672Z,100818.80
2018-08-17T12:29:56.350Z,100818.61
2018-08-17T12:32:24.487Z,100814.56
2018-08-17T12:34:52.355Z,100817.09
2018-08-17T12:37:20.181Z,100810.05
2018-08-17T12:39:47.842Z,100807.48
2018-08-17T12:42:15.652Z,100809.66
2018-08-17T12:44:43.316Z,100807.81
2018-08-17T12:47:10.981Z,100809.16
2018-08-17T12:49:38.664Z,100815.91
2018-08-17T12:52:06.406Z,100794.48
2018-08-17T12:54:34.719Z,100789.25
2018-08-17T12:57:03.429Z,100798.70
2018-08-17T12:59:31.678Z,100805.25
2018-08-17T13:01:59.361Z,100800.41
2018-08-17T13:04:27.620Z,100798.70
2018-08-17T13:06:55.693Z,100800.05
2018-08-17T13:09:23.691Z,100797.14
2018-08-17T13:11:55.413Z,100800.99
2018-08-17T13:14:23.198Z,100795.88
2018-08-17T13:16:51.417Z,100800.91
2018-08-17T13:19:19.105Z,100794.50
2018-08-17T13:21:46.781Z,100786.11
2018-08-17T13:24:14.474Z,100782.06
2018-08-17T13:26:42.246Z,100782.84
2018-08-17T13:29:09.976Z,100779.81
2018-08-17T13:31:37.760Z,100790.20
2018-08-17T13:34:05.595Z,100798.63
2018-08-17T13:36:33.317Z,100791.25
2018-08-17T13:39:01.061Z,100784.47
2018-08-17T13:41:28.790Z,100784.23
2018-08-17T13:43:56.540Z,100780.42
2018-08-17T13:46:24.505Z,100781.44
2018-08-17T13:48:52.396Z,100781.48
2018-08-17T13:51:20.150Z,100779.56
2018-08-17T13:53:47.899Z,100775.39
2018-08-17T13:56:15.593Z,100782.02
2018-08-17T13:58:44.180Z,100792.02
2018-08-17T14:01:11.925Z,100786.91
2018-08-17T14:03:39.610Z,100783.89
2018-08-17T14:06:07.309Z,100788.92
2018-08-17T14:08:34.976Z,100789.29
2018-08-17T14:11:02.682Z,100784.26
2018-08-17T14:13:30.357Z,100779.80
2018-08-17T14:15:58.029Z,100767.20
2018-08-17T14:18:25.752Z,100771.58
2018-08-17T14:20:53.414Z,100777.11
2018-08-17T14:23:21.117Z,100792.16
2018-08-17T14:25:48.825Z,100800.41
2018-08-17T14:28:16.516Z,100805.12
2018-08-17T14:30:44.185Z,100800.81
2018-08-17T14:33:11.844Z,100795.28
2018-08-17T14:35:39.613Z,100796.77
2018-08-17T14:38:07.361Z,100801.50
2018-08-17T14:40:35.064Z,100798.17
2018-08-17T14:43:02.770Z,100803.77
2018-08-17T14:45:30.437Z,100795.19
2018-08-17T14:47:58.109Z,100791.17
2018-08-17T14:50:25.825Z,100798.05
2018-08-17T14:52:53.520Z,100802.26
2018-08-17T14:55:21.307Z,100802.75
2018-08-17T14:57:49.090Z,100796.03
2018-08-17T15:00:16.788Z,100787.25
2018-08-17T15:02:44.493Z,100791.17
2018-08-17T15:05:14.231Z,100800.64
2018-08-17T15:07:42.035Z,100793.31
2018-08-17T15:10:11.788Z,100792.38
2018-08-17T15:12:39.973Z,100789.35
2018-08-17T15:15:08.732Z,100789.55
2018-08-17T15:17:36.469Z,100787.73
2018-08-17T15:20:04.398Z,100787.18
2018-08-17T15:22:32.126Z,100780.44
2018-08-17T15:24:59.991Z,100782.87
2018-08-17T15:27:27.761Z,100787.48
2018-08-17T15:29:55.440Z,100794.28
2018-08-17T15:32:23.161Z,100781.81
2018-08-17T15:34:50.865Z,100794.36
2018-08-17T15:37:18.757Z,100779.84
2018-08-17T15:39:46.433Z,100791.97
2018-08-17T15:42:14.142Z,100788.94
2018-08-17T15:44:41.860Z,100780.55
2018-08-17T15:47:09.598Z,100787.09
2018-08-17T15:49:37.337Z,100786.52
2018-08-17T15:52:06.050Z,100779.91
2018-08-17T15:54:33.747Z,100777.39
2018-08-17T15:57:01.471Z,100771.47
2018-08-17T15:59:29.230Z,100769.19
2018-08-17T16:01:56.958Z,100764.90
2018-08-17T16:04:24.813Z,100775.82
2018-08-17T16:06:52.587Z,100771.85
2018-08-17T16:09:20.257Z,100759.66
2018-08-17T16:11:48.012Z,100770.16
2018-08-17T16:14:15.785Z,100771.00
2018-08-17T16:16:43.492Z,100763.74
2018-08-17T16:19:11.278Z,100765.87
2018-08-17T16:21:38.977Z,100758.05
2018-08-17T16:24:06.969Z,100759.14
2018-08-17T16:26:34.806Z,100761.45
2018-08-17T16:29:02.975Z,100754.07
2018-08-17T16:31:40.563Z,100746.00
2018-08-17T16:34:08.976Z,100750.77
2018-08-17T16:36:38.286Z,100746.75
2018-08-17T16:39:12.569Z,100755.45
2018-08-17T16:41:40.329Z,100744.36
2018-08-17T16:44:08.106Z,100746.39
2018-08-17T16:46:38.295Z,100742.52
2018-08-17T16:49:06.321Z,100737.48
2018-08-17T16:51:34.078Z,100737.63
2018-08-17T16:54:01.744Z,100739.66
2018-08-17T16:56:29.417Z,100739.80
2018-08-17T16:58:57.100Z,100737.41
2018-08-17T17:01:24.877Z,100744.43
2018-08-17T17:03:52.607Z,100742.69
2018-08-17T17:06:20.387Z,100753.44
2018-08-17T17:08:48.242Z,100750.64
2018-08-17T17:11:15.921Z,100749.63
2018-08-17T17:13:43.584Z,100741.45
2018-08-17T17:16:11.295Z,100747.03
2018-08-17T17:18:38.956Z,100744.19
2018-08-17T17:21:06.661Z,100743.14
2018-08-17T17:23:43.088Z,100745.16
2018-08-17T17:26:10.949Z,100740.67
2018-08-17T17:28:38.625Z,100736.23
2018-08-17T17:31:06.536Z,100740.44
2018-08-17T17:33:34.208Z,100733.35
2018-08-17T17:36:01.969Z,100732.84
2018-08-17T17:38:29.644Z,100735.08
2018-08-17T17:40:57.375Z,100733.95
2018-08-17T17:43:25.053Z,100729.78
2018-08-17T17:45:52.856Z,100726.34
2018-08-17T17:48:20.525Z,100729.56
2018-08-17T17:50:48.367Z,100732.11
2018-08-17T17:53:16.074Z,100719.78
2018-08-17T17:55:50.369Z,100719.47
2018-08-17T17:58:18.876Z,100726.34
2018-08-17T18:00:59.627Z,100723.65
2018-08-17T18:03:29.404Z,100734.47
2018-08-17T18:06:07.236Z,100733.84
2018-08-17T18:08:34.958Z,100733.48
2018-08-17T18:11:02.818Z,100740.21
2018-08-17T18:13:30.651Z,100738.20
2018-08-17T18:15:58.428Z,100738.22
2018-08-17T18:18:26.109Z,100741.23
2018-08-17T18:20:53.818Z,100741.23
2018-08-17T18:23:21.585Z,100735.52
2018-08-17T18:25:49.268Z,100739.56
2018-08-17T18:28:16.966Z,100745.77
2018-08-17T18:30:44.706Z,100755.86
2018-08-17T18:33:12.401Z,100748.13
2018-08-17T18:35:40.073Z,100753.33
2018-08-17T18:38:07.985Z,100745.44
2018-08-17T18:40:35.744Z,100757.20
2018-08-17T18:43:03.616Z,100752.52
2018-08-17T18:45:31.316Z,100758.05
2018-08-17T18:47:58.974Z,100759.23
2018-08-17T18:50:26.661Z,100756.37
2018-08-17T18:52:54.478Z,100758.56
2018-08-17T18:55:22.119Z,100749.16
2018-08-17T18:57:49.899Z,100744.94
2018-08-17T19:00:17.582Z,100756.03
2018-08-17T19:02:45.323Z,100749.98
2018-08-17T19:05:13.041Z,100758.71
2018-08-17T19:07:40.864Z,100758.03
2018-08-17T19:10:09.455Z,100757.58
2018-08-17T19:12:37.295Z,100760.35
2018-08-17T19:15:09.192Z,100754.48
2018-08-17T19:17:37.045Z,100755.25
2018-08-17T19:20:06.884Z,100763.41
2018-08-17T19:22:37.060Z,100762.70
2018-08-17T19:25:05.974Z,100757.92
2018-08-17T19:27:33.690Z,100768.09
2018-08-17T19:30:01.978Z,100759.20
2018-08-17T19:32:29.644Z,100756.48
2018-08-17T19:34:57.327Z,100762.72
2018-08-17T19:37:25.045Z,100764.44
2018-08-17T19:39:52.715Z,100761.42
2018-08-17T19:42:20.374Z,100764.65
2018-08-17T19:44:48.176Z,100766.97
2018-08-17T19:47:15.849Z,100766.58
2018-08-17T19:49:43.603Z,100764.56
2018-08-17T19:52:11.302Z,100765.19
2018-08-17T19:54:38.975Z,100761.33
2018-08-17T19:57:06.685Z,100766.19
2018-08-17T19:59:34.369Z,100758.26
2018-08-17T20:02:02.081Z,100772.64
2018-08-17T20:04:30.384Z,100768.55
2018-08-17T20:06:58.378Z,100775.85
2018-08-17T20:09:26.071Z,100779.09
2018-08-17T20:11:53.761Z,100779.35
2018-08-17T20:14:21.498Z,100788.67
2018-08-17T20:16:49.235Z,100777.74
2018-08-17T20:19:17.006Z,100795.07
2018-08-17T20:21:44.641Z,100790.41
2018-08-17T20:24:12.342Z,100801.38
2018-08-17T20:26:40.393Z,100803.79
2018-08-17T20:29:07.798Z,100801.41
2018-08-17T20:31:40.030Z,100804.54
2018-08-17T20:34:07.780Z,100803.26
2018-08-17T20:36:35.479Z,100807.97
2018-08-17T20:39:09.838Z,100812.45
2018-08-17T20:41:37.639Z,100808.11
2018-08-17T20:44:05.671Z,100814.02
2018-08-17T20:46:33.405Z,100811.08
2018-08-17T20:49:01.130Z,100813.86
2018-08-17T20:51:28.822Z,100809.49
2018-08-17T20:53:58.782Z,100816.92
2018-08-17T20:56:27.134Z,100813.66
2018-08-17T20:58:54.980Z,100813.94
2018-08-17T21:01:22.901Z,100817.53
2018-08-17T21:03:50.795Z,100822.97
2018-08-17T21:08:48.792Z,100835.10
2018-08-17T21:11:16.543Z,100828.46
2018-08-17T21:13:44.244Z,100833.75
2018-08-17T21:16:11.911Z,100834.99
2018-08-17T21:18:39.590Z,100846.15
2018-08-17T21:21:07.322Z,100833.67
2018-08-17T21:23:34.980Z,100835.83
2018-08-17T21:26:02.723Z,100835.14
2018-08-17T21:28:30.912Z,100833.92
2018-08-17T21:30:58.641Z,100836.95
2018-08-17T21:33:26.346Z,100845.16
2018-08-17T21:35:54.073Z,100843.13
2018-08-17T21:38:21.755Z,100836.25
2018-08-17T21:40:49.442Z,100840.55
2018-08-17T21:43:17.263Z,100846.98
2018-08-17T21:45:45.266Z,100853.76
2018-08-17T21:48:20.233Z,100860.28
2018-08-17T21:50:48.070Z,100856.96
2018-08-17T21:53:15.737Z,100852.25
2018-08-17T21:55:43.439Z,100864.26
2018-08-17T21:58:11.097Z,100868.03
2018-08-17T22:00:38.846Z,100867.14
2018-08-17T22:03:29.505Z,100857.15
2018-08-17T22:05:57.255Z,100860.94
2018-08-17T22:08:24.914Z,100859.96
2018-08-17T22:10:52.671Z,100865.64
2018-08-17T22:13:28.948Z,100867.83
2018-08-17T22:15:56.810Z,100867.22
2018-08-17T22:18:24.577Z,100868.19
2018-08-17T22:20:52.253Z,100869.38
2018-08-17T22:23:19.934Z,100866.41
2018-08-17T22:25:47.668Z,100864.67
2018-08-17T22:28:15.788Z,100865.42
2018-08-17T22:30:43.590Z,100873.45
2018-08-17T22:33:12.537Z,100878.75
2018-08-17T22:35:40.393Z,100873.48
2018-08-17T22:38:08.078Z,100878.52
2018-08-17T22:40:35.782Z,100875.27
2018-08-17T22:43:03.513Z,100876.36
2018-08-17T22:45:31.308Z,100881.02
2018-08-17T22:47:58.981Z,100890.09
2018-08-17T22:50:26.741Z,100896.67
2018-08-17T22:52:54.504Z,100893.08
2018-08-17T22:55:22.149Z,100895.63
2018-08-17T22:57:49.817Z,100902.48
2018-08-17T23:00:22.890Z,100901.02
2018-08-17T23:02:52.768Z,100911.63
2018-08-17T23:05:24.617Z,100907.87
2018-08-17T23:07:52.313Z,100911.30
2018-08-17T23:10:21.143Z,100906.39
2018-08-17T23:12:49.935Z,100898.22
2018-08-17T23:15:17.743Z,100899.64
2018-08-17T23:17:51.691Z,100901.17
2018-08-17T23:20:24.897Z,100897.38
2018-08-17T23:22:54.720Z,100902.49
2018-08-17T23:25:22.493Z,100902.64
2018-08-17T23:27:50.576Z,100905.97
2018-08-17T23:30:18.489Z,100907.30
2018-08-17T23:32:46.551Z,100906.23
2018-08-17T23:35:14.231Z,100910.33
2018-08-17T23:37:41.974Z,100913.69
2018-08-17T23:40:10.020Z,100922.61
2018-08-17T23:42:37.724Z,100920.73
2018-08-17T23:45:06.768Z,100917.92
2018-08-17T23:47:34.772Z,100912.48
2018-08-17T23:50:02.482Z,100910.48
2018-08-17T23:52:30.180Z,100908.40
2018-08-17T23:54:57.861Z,100916.02
2018-08-17T23:57:25.589Z,100928.41
2018-08-17T23:59:53.325Z,100932.11
